sensor_id;sensor_type;location;lat;lon;timestamp;pressure;altitude;pressure_sealevel;temperature;humidity
36454;BME280;22478;51.740;-1.314;2023-02-28T00:01:21;102076.83;;;-5.22;100.00
36454;BME280;22478;51.740;-1.314;2023-02-28T00:03:49;102076.65;;;-5.13;100.00
36454;BME280;22478;51.740;-1.314;2023-02-28T00:06:16;102070.16;;;-3.76;100.00
36454;BME280;22478;51.740;-1.314;2023-02-28T00:08:44;102076.54;;;-5.16;100.00
36454;BME280;22478;51.740;-1.314;2023-02-28T00:11:13;102086.09;;;-6.41;100.00
36454;BME280;22478;51.740;-1.314;2023-02-28T00:13:43;102078.03;;;-3.60;100.00
36454;BME280;22478;51.740;-1.314;2023-02-28T00:16:13;102077.46;;;-4.40;100.00
36454;BME280;22478;51.740;-1.314;2023-02-28T00:18:41;102079.11;;;-3.47;100.00
36454;BME280;22478;51.740;-1.314;2023-02-28T00:21:09;102076.92;;;-3.89;100.00
36454;BME280;22478;51.740;-1.314;2023-02-28T00:23:36;102080.09;;;-4.61;100.00
36454;BME280;22478;51.740;-1.314;2023-02-28T00:26:04;102077.39;;;-3.68;100.00
36454;BME280;22478;51.740;-1.314;2023-02-28T00:28:32;102079.26;;;-1.12;100.00
36454;BME280;22478;51.740;-1.314;2023-02-28T00:30:59;102076.48;;;-0.26;100.00
36454;BME280;22478;51.740;-1.314;2023-02-28T00:33:27;102080.78;;;-2.39;100.00
36454;BME280;22478;51.740;-1.314;2023-02-28T00:36:04;102082.55;;;-2.81;100.00
36454;BME280;22478;51.740;-1.314;2023-02-28T00:38:32;102086.28;;;-2.21;100.00
36454;BME280;22478;51.740;-1.314;2023-02-28T00:40:59;102084.02;;;-0.23;100.00
36454;BME280;22478;51.740;-1.314;2023-02-28T00:43:26;102086.73;;;-2.53;100.00
36454;BME280;22478;51.740;-1.314;2023-02-28T00:45:53;102088.74;;;-4.14;100.00
36454;BME280;22478;51.740;-1.314;2023-02-28T00:48:21;102088.85;;;-3.37;100.00
36454;BME280;22478;51.740;-1.314;2023-02-28T00:50:49;102097.03;;;-5.13;100.00
36454;BME280;22478;51.740;-1.314;2023-02-28T00:53:16;102099.49;;;-3.97;100.00
36454;BME280;22478;51.740;-1.314;2023-02-28T00:55:43;102092.92;;;-0.43;100.00
36454;BME280;22478;51.740;-1.314;2023-02-28T00:58:11;102090.79;;;-0.72;100.00
36454;BME280;22478;51.740;-1.314;2023-02-28T01:00:38;102098.91;;;-4.60;100.00
36454;BME280;22478;51.740;-1.314;2023-02-28T01:03:05;102097.08;;;-3.15;100.00
36454;BME280;22478;51.740;-1.314;2023-02-28T01:05:32;102098.28;;;-4.50;100.00
36454;BME280;22478;51.740;-1.314;2023-02-28T01:08:00;102092.61;;;-2.94;100.00
36454;BME280;22478;51.740;-1.314;2023-02-28T01:10:28;102092.13;;;-3.86;100.00
36454;BME280;22478;51.740;-1.314;2023-02-28T01:12:55;102086.78;;;-1.01;100.00
36454;BME280;22478;51.740;-1.314;2023-02-28T01:15:23;102090.47;;;-2.20;100.00
36454;BME280;22478;51.740;-1.314;2023-02-28T01:17:50;102095.52;;;-3.97;100.00
36454;BME280;22478;51.740;-1.314;2023-02-28T01:20:18;102088.36;;;-2.91;100.00
36454;BME280;22478;51.740;-1.314;2023-02-28T01:22:45;102088.28;;;-0.12;100.00
36454;BME280;22478;51.740;-1.314;2023-02-28T01:25:12;102084.51;;;-0.38;100.00
36454;BME280;22478;51.740;-1.314;2023-02-28T01:27:40;102086.09;;;-1.13;100.00
36454;BME280;22478;51.740;-1.314;2023-02-28T01:30:09;102093.95;;;-2.19;100.00
36454;BME280;22478;51.740;-1.314;2023-02-28T01:32:37;102096.03;;;-1.55;100.00
36454;BME280;22478;51.740;-1.314;2023-02-28T01:35:04;102099.28;;;-1.84;100.00
36454;BME280;22478;51.740;-1.314;2023-02-28T01:37:31;102103.64;;;-4.29;100.00
36454;BME280;22478;51.740;-1.314;2023-02-28T01:39:58;102108.98;;;-4.78;100.00
36454;BME280;22478;51.740;-1.314;2023-02-28T01:42:26;102108.27;;;-4.53;100.00
36454;BME280;22478;51.740;-1.314;2023-02-28T01:45:00;102102.70;;;-3.56;100.00
36454;BME280;22478;51.740;-1.314;2023-02-28T01:47:31;102108.86;;;-4.00;100.00
36454;BME280;22478;51.740;-1.314;2023-02-28T01:50:01;102104.80;;;-3.15;100.00
36454;BME280;22478;51.740;-1.314;2023-02-28T01:52:30;102099.39;;;-3.12;100.00
36454;BME280;22478;51.740;-1.314;2023-02-28T01:54:59;102104.36;;;-4.08;100.00
36454;BME280;22478;51.740;-1.314;2023-02-28T01:57:30;102095.98;;;-1.08;100.00
36454;BME280;22478;51.740;-1.314;2023-02-28T02:00:03;102092.76;;;-3.16;100.00
36454;BME280;22478;51.740;-1.314;2023-02-28T02:02:32;102095.24;;;-3.74;100.00
36454;BME280;22478;51.740;-1.314;2023-02-28T02:05:03;102086.28;;;-1.71;100.00
36454;BME280;22478;51.740;-1.314;2023-02-28T02:07:33;102087.21;;;-1.56;100.00
36454;BME280;22478;51.740;-1.314;2023-02-28T02:10:10;102087.53;;;-1.30;100.00
36454;BME280;22478;51.740;-1.314;2023-02-28T02:12:54;102102.04;;;-5.98;100.00
36454;BME280;22478;51.740;-1.314;2023-02-28T02:15:30;102108.83;;;-6.57;100.00
36454;BME280;22478;51.740;-1.314;2023-02-28T02:18:03;102095.64;;;-4.37;100.00
36454;BME280;22478;51.740;-1.314;2023-02-28T02:20:53;102098.74;;;-5.07;100.00
36454;BME280;22478;51.740;-1.314;2023-02-28T02:23:46;102087.33;;;-0.98;100.00
36454;BME280;22478;51.740;-1.314;2023-02-28T02:26:41;102083.82;;;-1.08;100.00
36454;BME280;22478;51.740;-1.314;2023-02-28T02:29:32;102080.34;;;-1.00;100.00
36454;BME280;22478;51.740;-1.314;2023-02-28T02:32:41;102076.24;;;0.45;100.00
36454;BME280;22478;51.740;-1.314;2023-02-28T02:35:15;102084.44;;;-1.56;100.00
36454;BME280;22478;51.740;-1.314;2023-02-28T02:37:50;102073.99;;;0.69;100.00
36454;BME280;22478;51.740;-1.314;2023-02-28T02:40:22;102083.43;;;-3.19;100.00
36454;BME280;22478;51.740;-1.314;2023-02-28T02:42:52;102085.05;;;-4.22;100.00
36454;BME280;22478;51.740;-1.314;2023-02-28T02:45:24;102087.38;;;-4.91;100.00
36454;BME280;22478;51.740;-1.314;2023-02-28T02:47:53;102082.00;;;-3.12;100.00
36454;BME280;22478;51.740;-1.314;2023-02-28T02:50:25;102089.05;;;-4.81;100.00
36454;BME280;22478;51.740;-1.314;2023-02-28T02:52:58;102081.75;;;-2.59;100.00
36454;BME280;22478;51.740;-1.314;2023-02-28T02:55:27;102076.62;;;-3.81;100.00
36454;BME280;22478;51.740;-1.314;2023-02-28T02:57:59;102074.18;;;-2.78;100.00
36454;BME280;22478;51.740;-1.314;2023-02-28T03:00:31;102077.79;;;-3.58;100.00
36454;BME280;22478;51.740;-1.314;2023-02-28T03:03:00;102081.97;;;-3.74;100.00
36454;BME280;22478;51.740;-1.314;2023-02-28T03:05:32;102083.32;;;-5.11;100.00
36454;BME280;22478;51.740;-1.314;2023-02-28T03:08:03;102075.15;;;-3.43;100.00
36454;BME280;22478;51.740;-1.314;2023-02-28T03:10:35;102079.14;;;-4.32;100.00
36454;BME280;22478;51.740;-1.314;2023-02-28T03:15:26;102080.63;;;-4.32;100.00
36454;BME280;22478;51.740;-1.314;2023-02-28T03:18:02;102075.27;;;-3.70;100.00
36454;BME280;22478;51.740;-1.314;2023-02-28T03:20:37;102076.45;;;-3.63;100.00
36454;BME280;22478;51.740;-1.314;2023-02-28T03:23:13;102074.03;;;-3.70;100.00
36454;BME280;22478;51.740;-1.314;2023-02-28T03:25:53;102081.09;;;-4.27;100.00
36454;BME280;22478;51.740;-1.314;2023-02-28T03:28:32;102075.39;;;-0.94;100.00
36454;BME280;22478;51.740;-1.314;2023-02-28T03:31:10;102068.44;;;-2.06;100.00
36454;BME280;22478;51.740;-1.314;2023-02-28T03:33:45;102056.48;;;-0.29;100.00
36454;BME280;22478;51.740;-1.314;2023-02-28T03:36:17;102062.34;;;-1.26;100.00
36454;BME280;22478;51.740;-1.314;2023-02-28T03:38:49;102061.96;;;-1.30;100.00
36454;BME280;22478;51.740;-1.314;2023-02-28T03:41:22;102054.84;;;-0.09;100.00
36454;BME280;22478;51.740;-1.314;2023-02-28T03:43:53;102071.02;;;-4.16;100.00
36454;BME280;22478;51.740;-1.314;2023-02-28T03:46:24;102081.81;;;-4.89;100.00
36454;BME280;22478;51.740;-1.314;2023-02-28T03:48:56;102079.81;;;-3.71;100.00
36454;BME280;22478;51.740;-1.314;2023-02-28T03:51:27;102082.05;;;-4.70;100.00
36454;BME280;22478;51.740;-1.314;2023-02-28T03:53:59;102073.13;;;-2.43;100.00
36454;BME280;22478;51.740;-1.314;2023-02-28T03:56:34;102071.98;;;-1.21;100.00
36454;BME280;22478;51.740;-1.314;2023-02-28T03:59:09;102071.40;;;-3.52;100.00
36454;BME280;22478;51.740;-1.314;2023-02-28T04:01:42;102057.73;;;-0.31;100.00
36454;BME280;22478;51.740;-1.314;2023-02-28T04:04:11;102056.02;;;0.71;100.00
36454;BME280;22478;51.740;-1.314;2023-02-28T04:06:40;102070.30;;;-1.71;100.00
36454;BME280;22478;51.740;-1.314;2023-02-28T04:09:09;102063.75;;;-0.41;100.00
36454;BME280;22478;51.740;-1.314;2023-02-28T04:11:39;102068.35;;;-0.21;100.00
36454;BME280;22478;51.740;-1.314;2023-02-28T04:14:08;102064.99;;;-0.10;100.00
36454;BME280;22478;51.740;-1.314;2023-02-28T04:16:38;102076.66;;;-0.96;100.00
36454;BME280;22478;51.740;-1.314;2023-02-28T04:19:07;102082.63;;;-3.29;100.00
36454;BME280;22478;51.740;-1.314;2023-02-28T04:21:37;102091.72;;;-4.92;100.00
36454;BME280;22478;51.740;-1.314;2023-02-28T04:24:06;102092.49;;;-5.88;100.00
36454;BME280;22478;51.740;-1.314;2023-02-28T04:26:35;102103.82;;;-5.11;100.00
36454;BME280;22478;51.740;-1.314;2023-02-28T04:29:03;102106.03;;;-5.61;100.00
36454;BME280;22478;51.740;-1.314;2023-02-28T04:31:31;102100.39;;;-4.32;100.00
36454;BME280;22478;51.740;-1.314;2023-02-28T04:33:59;102092.58;;;-3.50;100.00
36454;BME280;22478;51.740;-1.314;2023-02-28T04:36:26;102087.92;;;-2.40;100.00
36454;BME280;22478;51.740;-1.314;2023-02-28T04:38:54;102093.75;;;-3.70;100.00
36454;BME280;22478;51.740;-1.314;2023-02-28T04:41:22;102088.69;;;-3.11;100.00
36454;BME280;22478;51.740;-1.314;2023-02-28T04:43:50;102096.56;;;-3.99;100.00
36454;BME280;22478;51.740;-1.314;2023-02-28T04:46:18;102094.18;;;-2.55;100.00
36454;BME280;22478;51.740;-1.314;2023-02-28T04:48:46;102091.20;;;-2.19;100.00
36454;BME280;22478;51.740;-1.314;2023-02-28T04:51:14;102098.91;;;-4.09;100.00
36454;BME280;22478;51.740;-1.314;2023-02-28T04:53:43;102095.96;;;-3.06;100.00
36454;BME280;22478;51.740;-1.314;2023-02-28T04:56:13;102092.92;;;-3.43;100.00
36454;BME280;22478;51.740;-1.314;2023-02-28T04:58:41;102081.47;;;-0.83;100.00
36454;BME280;22478;51.740;-1.314;2023-02-28T05:01:19;102087.86;;;-1.95;100.00
36454;BME280;22478;51.740;-1.314;2023-02-28T05:03:48;102081.82;;;-0.18;100.00
36454;BME280;22478;51.740;-1.314;2023-02-28T05:06:15;102089.91;;;-2.13;100.00
36454;BME280;22478;51.740;-1.314;2023-02-28T05:08:43;102097.07;;;-2.79;100.00
36454;BME280;22478;51.740;-1.314;2023-02-28T05:11:16;102101.46;;;-2.92;100.00
36454;BME280;22478;51.740;-1.314;2023-02-28T05:13:44;102106.04;;;-1.24;100.00
36454;BME280;22478;51.740;-1.314;2023-02-28T05:16:11;102104.60;;;-0.51;100.00
36454;BME280;22478;51.740;-1.314;2023-02-28T05:18:38;102110.30;;;-3.01;100.00
36454;BME280;22478;51.740;-1.314;2023-02-28T05:21:06;102127.10;;;-3.44;100.00
36454;BME280;22478;51.740;-1.314;2023-02-28T05:23:44;102124.45;;;-1.63;100.00
36454;BME280;22478;51.740;-1.314;2023-02-28T05:26:12;102121.35;;;-0.71;100.00
36454;BME280;22478;51.740;-1.314;2023-02-28T05:28:39;102112.57;;;0.00;100.00
36454;BME280;22478;51.740;-1.314;2023-02-28T05:31:07;102116.57;;;-3.44;100.00
36454;BME280;22478;51.740;-1.314;2023-02-28T05:33:34;102119.29;;;-0.90;100.00
36454;BME280;22478;51.740;-1.314;2023-02-28T05:36:02;102119.24;;;-2.10;100.00
36454;BME280;22478;51.740;-1.314;2023-02-28T05:38:29;102122.63;;;-3.47;100.00
36454;BME280;22478;51.740;-1.314;2023-02-28T05:40:57;102125.13;;;-4.48;100.00
36454;BME280;22478;51.740;-1.314;2023-02-28T05:43:24;102119.20;;;-2.68;100.00
36454;BME280;22478;51.740;-1.314;2023-02-28T05:45:51;102113.61;;;-0.45;100.00
36454;BME280;22478;51.740;-1.314;2023-02-28T05:48:19;102119.33;;;-2.58;100.00
36454;BME280;22478;51.740;-1.314;2023-02-28T05:50:46;102118.96;;;-2.36;100.00
36454;BME280;22478;51.740;-1.314;2023-02-28T05:53:13;102112.70;;;-0.53;100.00
36454;BME280;22478;51.740;-1.314;2023-02-28T05:55:41;102114.94;;;-2.00;100.00
36454;BME280;22478;51.740;-1.314;2023-02-28T05:58:08;102116.33;;;-0.01;100.00
36454;BME280;22478;51.740;-1.314;2023-02-28T06:00:35;102120.53;;;-0.71;100.00
36454;BME280;22478;51.740;-1.314;2023-02-28T06:03:02;102119.55;;;-0.65;100.00
36454;BME280;22478;51.740;-1.314;2023-02-28T06:05:29;102131.68;;;-2.31;100.00
36454;BME280;22478;51.740;-1.314;2023-02-28T06:07:56;102136.47;;;-1.48;100.00
36454;BME280;22478;51.740;-1.314;2023-02-28T06:10:24;102125.12;;;0.09;100.00
36454;BME280;22478;51.740;-1.314;2023-02-28T06:12:51;102124.73;;;0.34;100.00
36454;BME280;22478;51.740;-1.314;2023-02-28T06:15:18;102127.04;;;0.10;100.00
36454;BME280;22478;51.740;-1.314;2023-02-28T06:17:45;102127.21;;;0.08;100.00
36454;BME280;22478;51.740;-1.314;2023-02-28T06:20:13;102139.03;;;-1.78;100.00
36454;BME280;22478;51.740;-1.314;2023-02-28T06:22:40;102137.97;;;-3.15;100.00
36454;BME280;22478;51.740;-1.314;2023-02-28T06:25:09;102137.65;;;-3.32;100.00
36454;BME280;22478;51.740;-1.314;2023-02-28T06:27:38;102140.03;;;-1.32;100.00
36454;BME280;22478;51.740;-1.314;2023-02-28T06:30:05;102134.07;;;-1.47;100.00
36454;BME280;22478;51.740;-1.314;2023-02-28T06:32:33;102130.49;;;0.38;100.00
36454;BME280;22478;51.740;-1.314;2023-02-28T06:35:00;102134.30;;;-0.87;100.00
36454;BME280;22478;51.740;-1.314;2023-02-28T06:37:28;102145.50;;;-3.00;100.00
36454;BME280;22478;51.740;-1.314;2023-02-28T06:39:55;102148.58;;;-2.64;100.00
36454;BME280;22478;51.740;-1.314;2023-02-28T06:42:22;102147.31;;;-2.42;100.00
36454;BME280;22478;51.740;-1.314;2023-02-28T06:44:50;102141.52;;;-0.27;100.00
36454;BME280;22478;51.740;-1.314;2023-02-28T06:47:18;102141.44;;;-1.30;100.00
36454;BME280;22478;51.740;-1.314;2023-02-28T06:49:45;102145.55;;;-2.14;100.00
36454;BME280;22478;51.740;-1.314;2023-02-28T06:52:12;102137.86;;;0.01;100.00
36454;BME280;22478;51.740;-1.314;2023-02-28T06:54:41;102134.06;;;-0.14;100.00
36454;BME280;22478;51.740;-1.314;2023-02-28T06:57:09;102141.67;;;-3.25;100.00
36454;BME280;22478;51.740;-1.314;2023-02-28T06:59:36;102140.65;;;-1.14;100.00
36454;BME280;22478;51.740;-1.314;2023-02-28T07:02:04;102141.16;;;-1.61;100.00
36454;BME280;22478;51.740;-1.314;2023-02-28T07:04:31;102145.18;;;-1.58;100.00
36454;BME280;22478;51.740;-1.314;2023-02-28T07:06:58;102145.81;;;-1.51;100.00
36454;BME280;22478;51.740;-1.314;2023-02-28T07:09:25;102136.91;;;-0.06;100.00
36454;BME280;22478;51.740;-1.314;2023-02-28T07:11:52;102138.11;;;1.02;100.00
36454;BME280;22478;51.740;-1.314;2023-02-28T07:14:19;102146.02;;;-1.36;100.00
36454;BME280;22478;51.740;-1.314;2023-02-28T07:16:47;102149.46;;;-1.51;100.00
36454;BME280;22478;51.740;-1.314;2023-02-28T07:19:14;102152.94;;;-3.46;100.00
36454;BME280;22478;51.740;-1.314;2023-02-28T07:21:41;102154.35;;;-2.31;100.00
36454;BME280;22478;51.740;-1.314;2023-02-28T07:24:09;102153.25;;;-1.39;100.00
36454;BME280;22478;51.740;-1.314;2023-02-28T07:26:36;102155.73;;;-1.87;100.00
36454;BME280;22478;51.740;-1.314;2023-02-28T07:29:03;102151.97;;;-2.71;100.00
36454;BME280;22478;51.740;-1.314;2023-02-28T07:31:30;102155.10;;;-2.16;100.00
36454;BME280;22478;51.740;-1.314;2023-02-28T07:33:58;102156.23;;;-2.52;100.00
36454;BME280;22478;51.740;-1.314;2023-02-28T07:36:25;102157.60;;;-1.51;100.00
36454;BME280;22478;51.740;-1.314;2023-02-28T07:38:52;102161.53;;;-3.12;100.00
36454;BME280;22478;51.740;-1.314;2023-02-28T07:41:21;102159.34;;;-2.26;100.00
36454;BME280;22478;51.740;-1.314;2023-02-28T07:43:49;102153.48;;;-0.86;100.00
36454;BME280;22478;51.740;-1.314;2023-02-28T07:46:17;102157.94;;;-1.61;100.00
36454;BME280;22478;51.740;-1.314;2023-02-28T07:48:45;102153.50;;;-1.14;100.00
36454;BME280;22478;51.740;-1.314;2023-02-28T07:51:13;102154.36;;;-2.86;100.00
36454;BME280;22478;51.740;-1.314;2023-02-28T07:53:40;102146.65;;;1.10;100.00
36454;BME280;22478;51.740;-1.314;2023-02-28T07:56:08;102144.93;;;0.97;100.00
36454;BME280;22478;51.740;-1.314;2023-02-28T07:58:35;102147.20;;;0.56;100.00
36454;BME280;22478;51.740;-1.314;2023-02-28T08:01:07;102151.89;;;-1.14;100.00
36454;BME280;22478;51.740;-1.314;2023-02-28T08:03:35;102159.65;;;-2.08;100.00
36454;BME280;22478;51.740;-1.314;2023-02-28T08:06:03;102159.23;;;-1.30;100.00
36454;BME280;22478;51.740;-1.314;2023-02-28T08:08:31;102159.25;;;-2.22;100.00
36454;BME280;22478;51.740;-1.314;2023-02-28T08:10:59;102164.02;;;-3.17;100.00
36454;BME280;22478;51.740;-1.314;2023-02-28T08:13:27;102167.04;;;-2.35;100.00
36454;BME280;22478;51.740;-1.314;2023-02-28T08:15:55;102167.39;;;-3.52;100.00
36454;BME280;22478;51.740;-1.314;2023-02-28T08:18:23;102167.13;;;-0.87;100.00
36454;BME280;22478;51.740;-1.314;2023-02-28T08:20:51;102165.04;;;-1.29;100.00
36454;BME280;22478;51.740;-1.314;2023-02-28T08:23:18;102154.61;;;0.04;100.00
36454;BME280;22478;51.740;-1.314;2023-02-28T08:25:53;102165.46;;;-1.40;100.00
36454;BME280;22478;51.740;-1.314;2023-02-28T08:28:21;102165.17;;;-2.11;100.00
36454;BME280;22478;51.740;-1.314;2023-02-28T08:30:48;102156.39;;;0.83;100.00
36454;BME280;22478;51.740;-1.314;2023-02-28T08:33:15;102161.31;;;-0.44;100.00
36454;BME280;22478;51.740;-1.314;2023-02-28T08:35:42;102170.27;;;-1.84;100.00
36454;BME280;22478;51.740;-1.314;2023-02-28T08:38:09;102171.80;;;-2.76;100.00
36454;BME280;22478;51.740;-1.314;2023-02-28T08:40:37;102167.37;;;-0.76;100.00
36454;BME280;22478;51.740;-1.314;2023-02-28T08:43:04;102167.39;;;-2.12;100.00
36454;BME280;22478;51.740;-1.314;2023-02-28T08:45:31;102172.82;;;-3.09;100.00
36454;BME280;22478;51.740;-1.314;2023-02-28T08:47:59;102172.62;;;-3.06;100.00
36454;BME280;22478;51.740;-1.314;2023-02-28T08:50:26;102173.42;;;-4.22;100.00
36454;BME280;22478;51.740;-1.314;2023-02-28T08:52:53;102170.60;;;-2.85;100.00
36454;BME280;22478;51.740;-1.314;2023-02-28T08:55:20;102167.01;;;-3.34;100.00
36454;BME280;22478;51.740;-1.314;2023-02-28T08:57:48;102170.68;;;-4.41;100.00
36454;BME280;22478;51.740;-1.314;2023-02-28T09:00:16;102156.31;;;-0.64;100.00
36454;BME280;22478;51.740;-1.314;2023-02-28T09:02:43;102149.49;;;-1.19;100.00
36454;BME280;22478;51.740;-1.314;2023-02-28T09:05:10;102150.72;;;-2.43;100.00
36454;BME280;22478;51.740;-1.314;2023-02-28T09:07:37;102157.84;;;-3.47;100.00
36454;BME280;22478;51.740;-1.314;2023-02-28T09:10:05;102149.58;;;-0.78;100.00
36454;BME280;22478;51.740;-1.314;2023-02-28T09:12:34;102149.15;;;-1.65;100.00
36454;BME280;22478;51.740;-1.314;2023-02-28T09:15:03;102149.37;;;-1.50;100.00
36454;BME280;22478;51.740;-1.314;2023-02-28T09:17:31;102147.14;;;-1.28;100.00
36454;BME280;22478;51.740;-1.314;2023-02-28T09:19:58;102147.56;;;-2.42;100.00
36454;BME280;22478;51.740;-1.314;2023-02-28T09:22:25;102141.55;;;-2.07;100.00
36454;BME280;22478;51.740;-1.314;2023-02-28T09:24:52;102137.04;;;-1.06;100.00
36454;BME280;22478;51.740;-1.314;2023-02-28T09:27:19;102144.00;;;-0.56;100.00
36454;BME280;22478;51.740;-1.314;2023-02-28T09:29:46;102145.39;;;-2.24;100.00
36454;BME280;22478;51.740;-1.314;2023-02-28T09:32:14;102146.41;;;-1.81;100.00
36454;BME280;22478;51.740;-1.314;2023-02-28T09:34:41;102144.86;;;-2.73;100.00
36454;BME280;22478;51.740;-1.314;2023-02-28T09:37:08;102140.02;;;-1.42;100.00
36454;BME280;22478;51.740;-1.314;2023-02-28T09:39:35;102140.16;;;-0.87;100.00
36454;BME280;22478;51.740;-1.314;2023-02-28T09:42:03;102141.26;;;-1.28;100.00
36454;BME280;22478;51.740;-1.314;2023-02-28T09:44:36;102141.33;;;-0.60;100.00
36454;BME280;22478;51.740;-1.314;2023-02-28T09:47:11;102141.78;;;-1.76;100.00
36454;BME280;22478;51.740;-1.314;2023-02-28T09:49:42;102141.59;;;-0.80;100.00
36454;BME280;22478;51.740;-1.314;2023-02-28T09:52:14;102145.79;;;-1.94;100.00
36454;BME280;22478;51.740;-1.314;2023-02-28T09:54:42;102142.78;;;-2.43;100.00
36454;BME280;22478;51.740;-1.314;2023-02-28T09:57:16;102154.63;;;-3.18;100.00
36454;BME280;22478;51.740;-1.314;2023-02-28T09:59:56;102145.98;;;-2.89;100.00
36454;BME280;22478;51.740;-1.314;2023-02-28T10:02:46;102151.23;;;-2.67;100.00
36454;BME280;22478;51.740;-1.314;2023-02-28T10:05:17;102148.24;;;-1.99;100.00
36454;BME280;22478;51.740;-1.314;2023-02-28T10:07:54;102147.52;;;-2.09;100.00
36454;BME280;22478;51.740;-1.314;2023-02-28T10:10:28;102150.36;;;-2.12;100.00
36454;BME280;22478;51.740;-1.314;2023-02-28T10:12:59;102155.35;;;-2.15;100.00
36454;BME280;22478;51.740;-1.314;2023-02-28T10:15:31;102154.91;;;-2.26;100.00
36454;BME280;22478;51.740;-1.314;2023-02-28T10:18:03;102154.91;;;-1.77;100.00
36454;BME280;22478;51.740;-1.314;2023-02-28T10:20:34;102152.93;;;-1.79;100.00
36454;BME280;22478;51.740;-1.314;2023-02-28T10:23:10;102153.38;;;-1.52;100.00
36454;BME280;22478;51.740;-1.314;2023-02-28T10:25:39;102160.02;;;-2.36;100.00
36454;BME280;22478;51.740;-1.314;2023-02-28T10:28:10;102160.74;;;-2.48;100.00
36454;BME280;22478;51.740;-1.314;2023-02-28T10:30:40;102158.49;;;-2.06;100.00
36454;BME280;22478;51.740;-1.314;2023-02-28T10:33:18;102145.70;;;-1.31;100.00
36454;BME280;22478;51.740;-1.314;2023-02-28T10:35:46;102152.63;;;-2.41;100.00
36454;BME280;22478;51.740;-1.314;2023-02-28T10:38:17;102145.07;;;-0.94;100.00
36454;BME280;22478;51.740;-1.314;2023-02-28T10:40:45;102144.44;;;-1.31;100.00
36454;BME280;22478;51.740;-1.314;2023-02-28T10:43:22;102146.02;;;-0.15;100.00
36454;BME280;22478;51.740;-1.314;2023-02-28T10:46:01;102143.33;;;-1.01;100.00
36454;BME280;22478;51.740;-1.314;2023-02-28T10:48:33;102137.65;;;-1.43;100.00
36454;BME280;22478;51.740;-1.314;2023-02-28T10:51:02;102126.10;;;-0.56;100.00
36454;BME280;22478;51.740;-1.314;2023-02-28T10:53:33;102137.74;;;-2.08;100.00
36454;BME280;22478;51.740;-1.314;2023-02-28T10:56:02;102133.82;;;-1.61;100.00
36454;BME280;22478;51.740;-1.314;2023-02-28T10:58:40;102126.47;;;-2.45;100.00
36454;BME280;22478;51.740;-1.314;2023-02-28T11:01:15;102125.37;;;-1.14;100.00
36454;BME280;22478;51.740;-1.314;2023-02-28T11:03:42;102123.83;;;-1.58;100.00
36454;BME280;22478;51.740;-1.314;2023-02-28T11:06:16;102127.55;;;-2.75;100.00
36454;BME280;22478;51.740;-1.314;2023-02-28T11:08:46;102124.92;;;-0.89;100.00
36454;BME280;22478;51.740;-1.314;2023-02-28T11:11:14;102124.29;;;-1.16;100.00
36454;BME280;22478;51.740;-1.314;2023-02-28T11:13:45;102124.22;;;-1.93;100.00
36454;BME280;22478;51.740;-1.314;2023-02-28T11:16:14;102125.52;;;-1.34;100.00
36454;BME280;22478;51.740;-1.314;2023-02-28T11:18:46;102123.94;;;-2.99;100.00
36454;BME280;22478;51.740;-1.314;2023-02-28T11:21:22;102124.55;;;-2.13;100.00
36454;BME280;22478;51.740;-1.314;2023-02-28T11:23:53;102130.36;;;-2.01;100.00
36454;BME280;22478;51.740;-1.314;2023-02-28T11:26:40;102132.02;;;-2.67;100.00
36454;BME280;22478;51.740;-1.314;2023-02-28T11:29:17;102130.06;;;-2.25;100.00
36454;BME280;22478;51.740;-1.314;2023-02-28T11:32:02;102122.85;;;-1.11;100.00
36454;BME280;22478;51.740;-1.314;2023-02-28T11:34:30;102123.57;;;-1.60;100.00
36454;BME280;22478;51.740;-1.314;2023-02-28T11:36:59;102116.36;;;-1.96;100.00
36454;BME280;22478;51.740;-1.314;2023-02-28T11:39:27;102111.66;;;-0.85;100.00
36454;BME280;22478;51.740;-1.314;2023-02-28T11:42:23;102109.83;;;-2.46;100.00
36454;BME280;22478;51.740;-1.314;2023-02-28T11:45:07;102110.26;;;-2.30;100.00
36454;BME280;22478;51.740;-1.314;2023-02-28T11:47:47;102108.46;;;-0.67;100.00
36454;BME280;22478;51.740;-1.314;2023-02-28T11:50:24;102103.49;;;-1.10;100.00
36454;BME280;22478;51.740;-1.314;2023-02-28T11:52:55;102104.73;;;-1.24;100.00
36454;BME280;22478;51.740;-1.314;2023-02-28T11:55:26;102102.35;;;-2.28;100.00
36454;BME280;22478;51.740;-1.314;2023-02-28T11:58:04;102099.72;;;-2.07;100.00
36454;BME280;22478;51.740;-1.314;2023-02-28T12:00:40;102098.38;;;-1.04;100.00
36454;BME280;22478;51.740;-1.314;2023-02-28T12:03:22;102102.72;;;-2.11;100.00
36454;BME280;22478;51.740;-1.314;2023-02-28T12:06:00;102094.58;;;-1.30;100.00
36454;BME280;22478;51.740;-1.314;2023-02-28T12:08:44;102089.60;;;-0.94;100.00
36454;BME280;22478;51.740;-1.314;2023-02-28T12:11:25;102088.86;;;-1.72;100.00
36454;BME280;22478;51.740;-1.314;2023-02-28T12:14:06;102083.46;;;-1.58;100.00
36454;BME280;22478;51.740;-1.314;2023-02-28T12:16:48;102081.79;;;-1.71;100.00
36454;BME280;22478;51.740;-1.314;2023-02-28T12:19:25;102077.32;;;-1.69;100.00
36454;BME280;22478;51.740;-1.314;2023-02-28T12:22:09;102081.16;;;-1.85;100.00
36454;BME280;22478;51.740;-1.314;2023-02-28T12:24:49;102075.05;;;-0.10;100.00
36454;BME280;22478;51.740;-1.314;2023-02-28T12:27:24;102077.33;;;-0.87;100.00
36454;BME280;22478;51.740;-1.314;2023-02-28T12:29:58;102075.30;;;-0.78;100.00
36454;BME280;22478;51.740;-1.314;2023-02-28T12:32:30;102076.09;;;-0.77;100.00
36454;BME280;22478;51.740;-1.314;2023-02-28T12:35:03;102073.04;;;-1.19;100.00
36454;BME280;22478;51.740;-1.314;2023-02-28T12:37:35;102068.18;;;-0.86;100.00
36454;BME280;22478;51.740;-1.314;2023-02-28T12:40:09;102060.63;;;-1.95;100.00
36454;BME280;22478;51.740;-1.314;2023-02-28T12:42:41;102059.53;;;-0.71;100.00
36454;BME280;22478;51.740;-1.314;2023-02-28T12:45:12;102046.91;;;-0.84;100.00
36454;BME280;22478;51.740;-1.314;2023-02-28T12:47:45;102040.26;;;-0.76;100.00
36454;BME280;22478;51.740;-1.314;2023-02-28T12:50:15;102035.21;;;-0.26;100.00